sensor_id;sensor_type;location;lat;lon;timestamp;temperature;humidity
4813;DHT22;2420;51.202;8.698;2023-04-25T00:00:18;4.90;1.00
4813;DHT22;2420;51.202;8.698;2023-04-25T00:02:43;5.00;1.00
4813;DHT22;2420;51.202;8.698;2023-04-25T00:05:09;5.00;1.00
4813;DHT22;2420;51.202;8.698;2023-04-25T00:07:35;4.70;1.00
4813;DHT22;2420;51.202;8.698;2023-04-25T00:10:01;5.10;1.00
4813;DHT22;2420;51.202;8.698;2023-04-25T00:12:26;5.00;1.00
4813;DHT22;2420;51.202;8.698;2023-04-25T00:14:54;5.10;1.00
4813;DHT22;2420;51.202;8.698;2023-04-25T00:17:22;5.10;1.00
4813;DHT22;2420;51.202;8.698;2023-04-25T00:19:50;5.30;1.00
4813;DHT22;2420;51.202;8.698;2023-04-25T00:22:16;5.20;1.00
4813;DHT22;2420;51.202;8.698;2023-04-25T00:24:42;5.40;1.00
4813;DHT22;2420;51.202;8.698;2023-04-25T00:27:08;5.20;1.00
4813;DHT22;2420;51.202;8.698;2023-04-25T00:29:34;5.10;1.00
4813;DHT22;2420;51.202;8.698;2023-04-25T00:31:59;5.20;1.00
4813;DHT22;2420;51.202;8.698;2023-04-25T00:34:25;5.20;1.00
4813;DHT22;2420;51.202;8.698;2023-04-25T00:36:51;5.10;1.00
4813;DHT22;2420;51.202;8.698;2023-04-25T00:39:17;5.00;1.00
4813;DHT22;2420;51.202;8.698;2023-04-25T00:41:43;5.00;1.00
4813;DHT22;2420;51.202;8.698;2023-04-25T00:44:09;5.10;1.00
4813;DHT22;2420;51.202;8.698;2023-04-25T00:46:36;5.00;1.00
4813;DHT22;2420;51.202;8.698;2023-04-25T00:49:02;5.00;1.00
4813;DHT22;2420;51.202;8.698;2023-04-25T00:51:28;4.90;1.00
4813;DHT22;2420;51.202;8.698;2023-04-25T00:53:54;4.90;1.00
4813;DHT22;2420;51.202;8.698;2023-04-25T00:56:20;5.00;1.00
4813;DHT22;2420;51.202;8.698;2023-04-25T00:58:47;5.10;1.00
4813;DHT22;2420;51.202;8.698;2023-04-25T01:01:13;4.90;1.00
4813;DHT22;2420;51.202;8.698;2023-04-25T01:03:39;4.80;1.00
4813;DHT22;2420;51.202;8.698;2023-04-25T01:06:10;4.80;1.00
4813;DHT22;2420;51.202;8.698;2023-04-25T01:08:37;4.90;1.00
4813;DHT22;2420;51.202;8.698;2023-04-25T01:11:04;5.00;1.00
4813;DHT22;2420;51.202;8.698;2023-04-25T01:13:30;5.10;1.00
4813;DHT22;2420;51.202;8.698;2023-04-25T01:15:57;4.80;1.00
4813;DHT22;2420;51.202;8.698;2023-04-25T01:18:23;5.00;1.00
4813;DHT22;2420;51.202;8.698;2023-04-25T01:20:51;4.80;1.00
4813;DHT22;2420;51.202;8.698;2023-04-25T01:23:18;4.90;1.00
4813;DHT22;2420;51.202;8.698;2023-04-25T01:25:44;4.70;1.00
4813;DHT22;2420;51.202;8.698;2023-04-25T01:28:10;5.00;1.00
4813;DHT22;2420;51.202;8.698;2023-04-25T01:30:36;5.00;1.00
4813;DHT22;2420;51.202;8.698;2023-04-25T01:33:03;4.80;1.00
4813;DHT22;2420;51.202;8.698;2023-04-25T01:35:29;4.70;1.00
4813;DHT22;2420;51.202;8.698;2023-04-25T01:37:55;4.70;1.00
4813;DHT22;2420;51.202;8.698;2023-04-25T01:40:21;5.00;1.00
4813;DHT22;2420;51.202;8.698;2023-04-25T01:42:48;4.80;1.00
4813;DHT22;2420;51.202;8.698;2023-04-25T01:45:14;4.80;1.00
4813;DHT22;2420;51.202;8.698;2023-04-25T01:47:40;4.60;1.00
4813;DHT22;2420;51.202;8.698;2023-04-25T01:50:08;4.60;1.00
4813;DHT22;2420;51.202;8.698;2023-04-25T01:52:34;4.80;1.00
4813;DHT22;2420;51.202;8.698;2023-04-25T01:55:01;4.70;1.00
4813;DHT22;2420;51.202;8.698;2023-04-25T01:57:27;4.70;1.00
4813;DHT22;2420;51.202;8.698;2023-04-25T01:59:59;4.80;1.00
4813;DHT22;2420;51.202;8.698;2023-04-25T02:02:24;4.60;1.00
4813;DHT22;2420;51.202;8.698;2023-04-25T02:04:51;4.60;1.00
4813;DHT22;2420;51.202;8.698;2023-04-25T02:07:17;4.90;1.00
4813;DHT22;2420;51.202;8.698;2023-04-25T02:09:42;4.90;1.00
4813;DHT22;2420;51.202;8.698;2023-04-25T02:12:09;4.60;1.00
4813;DHT22;2420;51.202;8.698;2023-04-25T02:14:35;4.60;1.00
4813;DHT22;2420;51.202;8.698;2023-04-25T02:17:01;4.60;1.00
4813;DHT22;2420;51.202;8.698;2023-04-25T02:19:27;4.70;1.00
4813;DHT22;2420;51.202;8.698;2023-04-25T02:21:52;4.70;1.00
4813;DHT22;2420;51.202;8.698;2023-04-25T02:24:18;4.90;1.00
4813;DHT22;2420;51.202;8.698;2023-04-25T02:26:43;4.60;1.00
4813;DHT22;2420;51.202;8.698;2023-04-25T02:29:10;4.70;1.00
4813;DHT22;2420;51.202;8.698;2023-04-25T02:31:35;4.70;1.00
4813;DHT22;2420;51.202;8.698;2023-04-25T02:34:01;4.70;1.00
4813;DHT22;2420;51.202;8.698;2023-04-25T02:36:26;4.50;1.00
4813;DHT22;2420;51.202;8.698;2023-04-25T02:38:53;4.60;1.00
4813;DHT22;2420;51.202;8.698;2023-04-25T02:41:18;4.80;1.00
4813;DHT22;2420;51.202;8.698;2023-04-25T02:43:44;4.60;1.00
4813;DHT22;2420;51.202;8.698;2023-04-25T02:46:09;4.80;1.00
4813;DHT22;2420;51.202;8.698;2023-04-25T02:48:35;4.70;1.00
4813;DHT22;2420;51.202;8.698;2023-04-25T02:51:00;4.60;1.00
4813;DHT22;2420;51.202;8.698;2023-04-25T02:53:26;4.60;1.00
4813;DHT22;2420;51.202;8.698;2023-04-25T02:55:51;4.70;1.00
4813;DHT22;2420;51.202;8.698;2023-04-25T02:58:18;4.40;1.00
4813;DHT22;2420;51.202;8.698;2023-04-25T03:00:43;4.70;1.00
4813;DHT22;2420;51.202;8.698;2023-04-25T03:03:09;4.80;1.00
4813;DHT22;2420;51.202;8.698;2023-04-25T03:05:35;4.70;1.00
4813;DHT22;2420;51.202;8.698;2023-04-25T03:08:00;4.50;1.00
4813;DHT22;2420;51.202;8.698;2023-04-25T03:10:26;4.50;1.00
4813;DHT22;2420;51.202;8.698;2023-04-25T03:12:51;4.60;1.00
4813;DHT22;2420;51.202;8.698;2023-04-25T03:15:17;4.50;1.00
4813;DHT22;2420;51.202;8.698;2023-04-25T03:17:43;4.60;1.00
4813;DHT22;2420;51.202;8.698;2023-04-25T03:20:10;4.60;1.00
4813;DHT22;2420;51.202;8.698;2023-04-25T03:22:36;4.60;1.00
4813;DHT22;2420;51.202;8.698;2023-04-25T03:25:01;4.70;1.00
4813;DHT22;2420;51.202;8.698;2023-04-25T03:27:27;4.70;1.00
4813;DHT22;2420;51.202;8.698;2023-04-25T03:29:52;4.70;1.00
4813;DHT22;2420;51.202;8.698;2023-04-25T03:32:18;4.60;1.00
4813;DHT22;2420;51.202;8.698;2023-04-25T03:34:44;4.50;1.00
4813;DHT22;2420;51.202;8.698;2023-04-25T03:37:09;4.50;1.00
4813;DHT22;2420;51.202;8.698;2023-04-25T03:39:35;4.50;1.00
4813;DHT22;2420;51.202;8.698;2023-04-25T03:42:00;4.80;1.00
4813;DHT22;2420;51.202;8.698;2023-04-25T03:44:26;4.70;1.00
4813;DHT22;2420;51.202;8.698;2023-04-25T03:46:51;4.60;1.00
4813;DHT22;2420;51.202;8.698;2023-04-25T03:49:17;4.80;1.00
4813;DHT22;2420;51.202;8.698;2023-04-25T03:51:42;4.70;1.00
4813;DHT22;2420;51.202;8.698;2023-04-25T03:54:08;4.70;1.00
4813;DHT22;2420;51.202;8.698;2023-04-25T03:56:34;4.80;1.00
4813;DHT22;2420;51.202;8.698;2023-04-25T03:59:00;4.60;1.00
4813;DHT22;2420;51.202;8.698;2023-04-25T04:01:25;4.60;1.00
4813;DHT22;2420;51.202;8.698;2023-04-25T04:03:51;4.50;1.00
4813;DHT22;2420;51.202;8.698;2023-04-25T04:06:17;4.60;1.00
4813;DHT22;2420;51.202;8.698;2023-04-25T04:08:42;4.50;1.00
4813;DHT22;2420;51.202;8.698;2023-04-25T04:11:08;4.50;1.00
4813;DHT22;2420;51.202;8.698;2023-04-25T04:13:33;4.40;1.00
4813;DHT22;2420;51.202;8.698;2023-04-25T04:15:59;4.40;1.00
4813;DHT22;2420;51.202;8.698;2023-04-25T04:18:24;4.40;1.00
4813;DHT22;2420;51.202;8.698;2023-04-25T04:20:50;4.40;1.00
4813;DHT22;2420;51.202;8.698;2023-04-25T04:23:16;4.60;1.00
4813;DHT22;2420;51.202;8.698;2023-04-25T04:25:41;4.60;1.00
4813;DHT22;2420;51.202;8.698;2023-04-25T04:28:07;4.40;1.00
4813;DHT22;2420;51.202;8.698;2023-04-25T04:30:33;4.50;1.00
4813;DHT22;2420;51.202;8.698;2023-04-25T04:33:02;4.80;1.00
4813;DHT22;2420;51.202;8.698;2023-04-25T04:35:28;4.50;1.00
4813;DHT22;2420;51.202;8.698;2023-04-25T04:37:53;4.60;1.00
4813;DHT22;2420;51.202;8.698;2023-04-25T04:40:20;4.60;1.00
4813;DHT22;2420;51.202;8.698;2023-04-25T04:42:46;4.90;1.00
4813;DHT22;2420;51.202;8.698;2023-04-25T04:45:12;4.80;1.00
4813;DHT22;2420;51.202;8.698;2023-04-25T04:47:38;4.90;1.00
4813;DHT22;2420;51.202;8.698;2023-04-25T04:50:06;4.60;1.00
4813;DHT22;2420;51.202;8.698;2023-04-25T04:52:36;4.60;1.00
4813;DHT22;2420;51.202;8.698;2023-04-25T04:55:03;4.50;1.00
4813;DHT22;2420;51.202;8.698;2023-04-25T04:57:29;4.50;1.00
4813;DHT22;2420;51.202;8.698;2023-04-25T04:59:56;4.70;1.00
4813;DHT22;2420;51.202;8.698;2023-04-25T05:02:22;4.60;1.00
4813;DHT22;2420;51.202;8.698;2023-04-25T05:04:48;4.60;1.00
4813;DHT22;2420;51.202;8.698;2023-04-25T05:07:13;4.60;1.00
4813;DHT22;2420;51.202;8.698;2023-04-25T05:09:39;4.50;1.00
4813;DHT22;2420;51.202;8.698;2023-04-25T05:12:04;4.70;1.00
4813;DHT22;2420;51.202;8.698;2023-04-25T05:14:30;4.70;1.00
4813;DHT22;2420;51.202;8.698;2023-04-25T05:16:56;4.80;1.00
4813;DHT22;2420;51.202;8.698;2023-04-25T05:19:21;4.80;1.00
4813;DHT22;2420;51.202;8.698;2023-04-25T05:21:47;4.90;1.00
4813;DHT22;2420;51.202;8.698;2023-04-25T05:24:13;5.10;1.00
4813;DHT22;2420;51.202;8.698;2023-04-25T05:26:38;4.90;1.00
4813;DHT22;2420;51.202;8.698;2023-04-25T05:29:04;4.80;1.00
4813;DHT22;2420;51.202;8.698;2023-04-25T05:31:30;4.70;1.00
4813;DHT22;2420;51.202;8.698;2023-04-25T05:33:56;4.80;1.00
4813;DHT22;2420;51.202;8.698;2023-04-25T05:36:21;5.00;1.00
4813;DHT22;2420;51.202;8.698;2023-04-25T05:38:47;4.90;1.00
4813;DHT22;2420;51.202;8.698;2023-04-25T05:41:13;5.10;1.00
4813;DHT22;2420;51.202;8.698;2023-04-25T05:43:38;5.00;1.00
4813;DHT22;2420;51.202;8.698;2023-04-25T05:46:04;5.00;1.00
4813;DHT22;2420;51.202;8.698;2023-04-25T05:48:30;4.90;1.00
4813;DHT22;2420;51.202;8.698;2023-04-25T05:50:55;5.00;1.00
4813;DHT22;2420;51.202;8.698;2023-04-25T05:53:21;4.80;1.00
4813;DHT22;2420;51.202;8.698;2023-04-25T05:55:47;5.10;1.00
4813;DHT22;2420;51.202;8.698;2023-04-25T05:58:13;5.10;1.00
4813;DHT22;2420;51.202;8.698;2023-04-25T06:00:38;5.20;1.00
4813;DHT22;2420;51.202;8.698;2023-04-25T06:03:06;5.10;1.00
4813;DHT22;2420;51.202;8.698;2023-04-25T06:05:35;5.00;1.00
4813;DHT22;2420;51.202;8.698;2023-04-25T06:08:00;5.20;1.00
4813;DHT22;2420;51.202;8.698;2023-04-25T06:10:26;5.20;1.00
4813;DHT22;2420;51.202;8.698;2023-04-25T06:12:52;5.30;1.00
4813;DHT22;2420;51.202;8.698;2023-04-25T06:15:17;5.40;1.00
4813;DHT22;2420;51.202;8.698;2023-04-25T06:17:43;5.40;1.00
4813;DHT22;2420;51.202;8.698;2023-04-25T06:20:09;5.20;1.00
4813;DHT22;2420;51.202;8.698;2023-04-25T06:22:34;5.40;1.00
4813;DHT22;2420;51.202;8.698;2023-04-25T06:25:00;5.30;1.00
4813;DHT22;2420;51.202;8.698;2023-04-25T06:27:26;5.40;1.00
4813;DHT22;2420;51.202;8.698;2023-04-25T06:29:51;5.40;1.00
4813;DHT22;2420;51.202;8.698;2023-04-25T06:32:17;5.30;1.00
4813;DHT22;2420;51.202;8.698;2023-04-25T06:34:43;5.60;1.00
4813;DHT22;2420;51.202;8.698;2023-04-25T06:37:09;5.60;1.00
4813;DHT22;2420;51.202;8.698;2023-04-25T06:39:34;5.60;1.00
4813;DHT22;2420;51.202;8.698;2023-04-25T06:42:00;5.80;1.00
4813;DHT22;2420;51.202;8.698;2023-04-25T06:44:25;5.70;1.00
4813;DHT22;2420;51.202;8.698;2023-04-25T06:46:51;5.80;1.00
4813;DHT22;2420;51.202;8.698;2023-04-25T06:49:17;5.80;1.00
4813;DHT22;2420;51.202;8.698;2023-04-25T06:51:42;5.90;1.00
4813;DHT22;2420;51.202;8.698;2023-04-25T06:54:08;5.90;1.00
4813;DHT22;2420;51.202;8.698;2023-04-25T06:56:33;5.80;1.00
4813;DHT22;2420;51.202;8.698;2023-04-25T06:58:59;5.80;1.00
4813;DHT22;2420;51.202;8.698;2023-04-25T07:01:26;5.90;1.00
4813;DHT22;2420;51.202;8.698;2023-04-25T07:03:51;6.00;1.00
4813;DHT22;2420;51.202;8.698;2023-04-25T07:06:17;5.80;1.00
4813;DHT22;2420;51.202;8.698;2023-04-25T07:08:42;5.70;1.00
4813;DHT22;2420;51.202;8.698;2023-04-25T07:11:08;5.80;1.00
4813;DHT22;2420;51.202;8.698;2023-04-25T07:13:34;5.90;1.00
4813;DHT22;2420;51.202;8.698;2023-04-25T07:16:00;6.00;1.00
4813;DHT22;2420;51.202;8.698;2023-04-25T07:18:25;6.00;1.00
4813;DHT22;2420;51.202;8.698;2023-04-25T07:20:51;6.00;1.00
4813;DHT22;2420;51.202;8.698;2023-04-25T07:23:16;5.80;1.00
4813;DHT22;2420;51.202;8.698;2023-04-25T07:25:42;5.60;1.00
4813;DHT22;2420;51.202;8.698;2023-04-25T07:28:07;5.70;1.00
4813;DHT22;2420;51.202;8.698;2023-04-25T07:30:33;5.70;1.00
4813;DHT22;2420;51.202;8.698;2023-04-25T07:33:00;5.70;1.00
4813;DHT22;2420;51.202;8.698;2023-04-25T07:35:25;5.90;1.00
4813;DHT22;2420;51.202;8.698;2023-04-25T07:37:51;6.00;1.00
4813;DHT22;2420;51.202;8.698;2023-04-25T07:40:17;6.00;1.00
4813;DHT22;2420;51.202;8.698;2023-04-25T07:42:42;6.00;1.00
4813;DHT22;2420;51.202;8.698;2023-04-25T07:45:08;6.00;1.00
4813;DHT22;2420;51.202;8.698;2023-04-25T07:47:34;5.80;1.00
4813;DHT22;2420;51.202;8.698;2023-04-25T07:50:00;5.80;1.00
4813;DHT22;2420;51.202;8.698;2023-04-25T07:52:26;5.80;1.00
4813;DHT22;2420;51.202;8.698;2023-04-25T07:54:51;5.80;1.00
4813;DHT22;2420;51.202;8.698;2023-04-25T07:57:17;5.80;1.00
4813;DHT22;2420;51.202;8.698;2023-04-25T07:59:43;5.90;1.00
4813;DHT22;2420;51.202;8.698;2023-04-25T08:02:09;6.20;1.00
4813;DHT22;2420;51.202;8.698;2023-04-25T08:04:35;6.40;1.00
4813;DHT22;2420;51.202;8.698;2023-04-25T08:07:00;6.30;1.00
4813;DHT22;2420;51.202;8.698;2023-04-25T08:09:26;6.30;1.00
4813;DHT22;2420;51.202;8.698;2023-04-25T08:11:52;5.90;1.00
4813;DHT22;2420;51.202;8.698;2023-04-25T08:14:17;6.40;1.00
4813;DHT22;2420;51.202;8.698;2023-04-25T08:16:43;6.40;1.00
4813;DHT22;2420;51.202;8.698;2023-04-25T08:19:09;6.30;1.00
4813;DHT22;2420;51.202;8.698;2023-04-25T08:21:36;6.40;1.00
4813;DHT22;2420;51.202;8.698;2023-04-25T08:24:01;6.50;1.00
4813;DHT22;2420;51.202;8.698;2023-04-25T08:26:28;6.50;1.00
4813;DHT22;2420;51.202;8.698;2023-04-25T08:28:54;6.50;1.00
4813;DHT22;2420;51.202;8.698;2023-04-25T08:31:19;6.60;1.00
4813;DHT22;2420;51.202;8.698;2023-04-25T08:33:46;6.60;1.00
4813;DHT22;2420;51.202;8.698;2023-04-25T08:36:11;6.50;1.00
4813;DHT22;2420;51.202;8.698;2023-04-25T08:38:37;6.10;1.00
4813;DHT22;2420;51.202;8.698;2023-04-25T08:41:03;6.40;1.00
4813;DHT22;2420;51.202;8.698;2023-04-25T08:43:29;6.30;1.00
4813;DHT22;2420;51.202;8.698;2023-04-25T08:45:59;6.20;1.00
4813;DHT22;2420;51.202;8.698;2023-04-25T08:48:27;6.00;1.00
4813;DHT22;2420;51.202;8.698;2023-04-25T08:50:54;6.10;1.00
4813;DHT22;2420;51.202;8.698;2023-04-25T08:53:25;6.20;1.00
4813;DHT22;2420;51.202;8.698;2023-04-25T08:55:53;6.20;1.00
4813;DHT22;2420;51.202;8.698;2023-04-25T08:58:20;6.30;1.00
4813;DHT22;2420;51.202;8.698;2023-04-25T09:00:47;6.50;1.00
4813;DHT22;2420;51.202;8.698;2023-04-25T09:03:13;6.10;1.00
4813;DHT22;2420;51.202;8.698;2023-04-25T09:05:40;6.70;1.00
4813;DHT22;2420;51.202;8.698;2023-04-25T09:08:06;6.80;1.00
4813;DHT22;2420;51.202;8.698;2023-04-25T09:10:32;6.80;1.00
4813;DHT22;2420;51.202;8.698;2023-04-25T09:13:14;6.90;1.00
4813;DHT22;2420;51.202;8.698;2023-04-25T09:15:50;7.20;1.00
4813;DHT22;2420;51.202;8.698;2023-04-25T09:18:23;7.30;1.00
4813;DHT22;2420;51.202;8.698;2023-04-25T09:20:52;7.40;1.00
4813;DHT22;2420;51.202;8.698;2023-04-25T09:23:19;7.50;1.00
4813;DHT22;2420;51.202;8.698;2023-04-25T09:25:48;7.20;1.00
4813;DHT22;2420;51.202;8.698;2023-04-25T09:28:14;7.40;1.00
4813;DHT22;2420;51.202;8.698;2023-04-25T09:30:39;7.70;1.00
4813;DHT22;2420;51.202;8.698;2023-04-25T09:33:06;8.00;1.00
4813;DHT22;2420;51.202;8.698;2023-04-25T09:35:40;8.30;1.00
4813;DHT22;2420;51.202;8.698;2023-04-25T09:38:09;8.50;1.00
4813;DHT22;2420;51.202;8.698;2023-04-25T09:40:42;8.20;1.00
4813;DHT22;2420;51.202;8.698;2023-04-25T09:43:21;7.70;1.00
4813;DHT22;2420;51.202;8.698;2023-04-25T09:45:47;7.60;1.00
4813;DHT22;2420;51.202;8.698;2023-04-25T09:48:20;7.20;1.00
4813;DHT22;2420;51.202;8.698;2023-04-25T09:51:06;7.00;1.00
4813;DHT22;2420;51.202;8.698;2023-04-25T09:53:33;6.80;1.00
4813;DHT22;2420;51.202;8.698;2023-04-25T09:55:59;6.40;1.00
4813;DHT22;2420;51.202;8.698;2023-04-25T09:58:25;7.00;1.00
4813;DHT22;2420;51.202;8.698;2023-04-25T10:00:54;7.10;1.00
4813;DHT22;2420;51.202;8.698;2023-04-25T10:03:24;7.20;1.00
4813;DHT22;2420;51.202;8.698;2023-04-25T10:05:50;7.20;1.00
4813;DHT22;2420;51.202;8.698;2023-04-25T10:08:17;7.10;1.00
4813;DHT22;2420;51.202;8.698;2023-04-25T10:10:44;7.10;1.00
4813;DHT22;2420;51.202;8.698;2023-04-25T10:13:11;7.40;1.00
4813;DHT22;2420;51.202;8.698;2023-04-25T10:15:55;7.60;1.00
4813;DHT22;2420;51.202;8.698;2023-04-25T10:18:22;7.80;1.00
4813;DHT22;2420;51.202;8.698;2023-04-25T10:20:48;8.00;1.00
4813;DHT22;2420;51.202;8.698;2023-04-25T10:23:14;8.00;1.00
4813;DHT22;2420;51.202;8.698;2023-04-25T10:25:41;8.00;1.00
4813;DHT22;2420;51.202;8.698;2023-04-25T10:28:07;8.00;1.00
4813;DHT22;2420;51.202;8.698;2023-04-25T10:30:33;7.90;1.00
4813;DHT22;2420;51.202;8.698;2023-04-25T10:32:59;8.10;1.00
4813;DHT22;2420;51.202;8.698;2023-04-25T10:35:29;8.20;1.00
4813;DHT22;2420;51.202;8.698;2023-04-25T10:38:09;8.30;1.00
4813;DHT22;2420;51.202;8.698;2023-04-25T10:40:35;8.50;1.00
4813;DHT22;2420;51.202;8.698;2023-04-25T10:45:59;9.20;1.00
4813;DHT22;2420;51.202;8.698;2023-04-25T10:48:29;9.30;1.00
4813;DHT22;2420;51.202;8.698;2023-04-25T10:51:11;9.00;1.00
4813;DHT22;2420;51.202;8.698;2023-04-25T10:53:37;8.60;1.00
4813;DHT22;2420;51.202;8.698;2023-04-25T10:56:27;8.40;1.00
4813;DHT22;2420;51.202;8.698;2023-04-25T10:59:07;8.20;1.00
4813;DHT22;2420;51.202;8.698;2023-04-25T11:01:51;8.20;1.00
4813;DHT22;2420;51.202;8.698;2023-04-25T11:04:22;8.40;1.00
4813;DHT22;2420;51.202;8.698;2023-04-25T11:09:17;8.40;1.00
4813;DHT22;2420;51.202;8.698;2023-04-25T11:11:42;8.40;1.00
4813;DHT22;2420;51.202;8.698;2023-04-25T11:14:08;8.90;1.00
4813;DHT22;2420;51.202;8.698;2023-04-25T11:16:37;9.30;1.00
4813;DHT22;2420;51.202;8.698;2023-04-25T11:19:02;9.70;1.00
4813;DHT22;2420;51.202;8.698;2023-04-25T11:21:29;9.80;1.00
4813;DHT22;2420;51.202;8.698;2023-04-25T11:23:57;9.70;1.00
4813;DHT22;2420;51.202;8.698;2023-04-25T11:26:24;9.50;1.00
4813;DHT22;2420;51.202;8.698;2023-04-25T11:28:50;8.70;1.00
4813;DHT22;2420;51.202;8.698;2023-04-25T11:31:15;8.30;1.00
4813;DHT22;2420;51.202;8.698;2023-04-25T11:33:41;7.90;1.00
4813;DHT22;2420;51.202;8.698;2023-04-25T11:36:07;7.60;1.00
4813;DHT22;2420;51.202;8.698;2023-04-25T11:38:36;7.40;1.00
4813;DHT22;2420;51.202;8.698;2023-04-25T11:41:02;7.30;1.00
4813;DHT22;2420;51.202;8.698;2023-04-25T11:43:28;7.30;1.00
4813;DHT22;2420;51.202;8.698;2023-04-25T11:45:53;7.40;1.00
4813;DHT22;2420;51.202;8.698;2023-04-25T11:48:19;7.40;1.00
4813;DHT22;2420;51.202;8.698;2023-04-25T11:50:45;7.30;1.00
4813;DHT22;2420;51.202;8.698;2023-04-25T11:53:11;7.30;1.00
4813;DHT22;2420;51.202;8.698;2023-04-25T11:55:37;7.30;1.00
4813;DHT22;2420;51.202;8.698;2023-04-25T11:58:04;7.20;1.00
4813;DHT22;2420;51.202;8.698;2023-04-25T12:00:30;7.20;1.00
4813;DHT22;2420;51.202;8.698;2023-04-25T12:02:57;7.00;1.00
4813;DHT22;2420;51.202;8.698;2023-04-25T12:05:30;7.20;1.00
4813;DHT22;2420;51.202;8.698;2023-04-25T12:07:57;7.40;1.00
4813;DHT22;2420;51.202;8.698;2023-04-25T12:10:24;7.50;1.00
4813;DHT22;2420;51.202;8.698;2023-04-25T12:12:50;7.60;1.00
4813;DHT22;2420;51.202;8.698;2023-04-25T12:15:18;7.60;1.00
4813;DHT22;2420;51.202;8.698;2023-04-25T12:17:48;7.60;1.00
4813;DHT22;2420;51.202;8.698;2023-04-25T12:20:19;7.70;1.00
4813;DHT22;2420;51.202;8.698;2023-04-25T12:22:47;7.90;1.00
4813;DHT22;2420;51.202;8.698;2023-04-25T12:25:40;8.10;1.00
4813;DHT22;2420;51.202;8.698;2023-04-25T12:28:25;8.20;1.00
4813;DHT22;2420;51.202;8.698;2023-04-25T12:31:05;8.50;1.00
4813;DHT22;2420;51.202;8.698;2023-04-25T12:33:36;9.10;1.00
4813;DHT22;2420;51.202;8.698;2023-04-25T12:36:03;9.10;1.00
4813;DHT22;2420;51.202;8.698;2023-04-25T12:38:40;8.80;1.00
4813;DHT22;2420;51.202;8.698;2023-04-25T12:41:07;8.50;1.00
4813;DHT22;2420;51.202;8.698;2023-04-25T12:43:36;8.30;1.00
4813;DHT22;2420;51.202;8.698;2023-04-25T12:46:01;8.30;1.00
4813;DHT22;2420;51.202;8.698;2023-04-25T12:48:27;8.20;1.00
4813;DHT22;2420;51.202;8.698;2023-04-25T12:50:52;8.10;1.00
4813;DHT22;2420;51.202;8.698;2023-04-25T12:53:19;8.10;1.00
4813;DHT22;2420;51.202;8.698;2023-04-25T12:55:46;7.90;1.00
4813;DHT22;2420;51.202;8.698;2023-04-25T12:58:16;7.70;1.00
4813;DHT22;2420;51.202;8.698;2023-04-25T13:00:42;7.70;1.00
4813;DHT22;2420;51.202;8.698;2023-04-25T13:03:08;7.70;1.00
4813;DHT22;2420;51.202;8.698;2023-04-25T13:05:35;7.60;1.00
4813;DHT22;2420;51.202;8.698;2023-04-25T13:08:00;7.50;1.00
4813;DHT22;2420;51.202;8.698;2023-04-25T13:10:26;7.50;1.00
4813;DHT22;2420;51.202;8.698;2023-04-25T13:12:52;7.50;1.00
4813;DHT22;2420;51.202;8.698;2023-04-25T13:15:17;7.40;1.00
4813;DHT22;2420;51.202;8.698;2023-04-25T13:17:43;7.30;1.00
4813;DHT22;2420;51.202;8.698;2023-04-25T13:20:09;7.10;1.00
4813;DHT22;2420;51.202;8.698;2023-04-25T13:22:37;7.00;1.00
4813;DHT22;2420;51.202;8.698;2023-04-25T13:25:03;7.00;1.00
4813;DHT22;2420;51.202;8.698;2023-04-25T13:27:29;7.00;1.00
4813;DHT22;2420;51.202;8.698;2023-04-25T13:29:55;7.10;1.00
4813;DHT22;2420;51.202;8.698;2023-04-25T13:32:21;7.30;1.00
4813;DHT22;2420;51.202;8.698;2023-04-25T13:34:46;7.30;1.00
4813;DHT22;2420;51.202;8.698;2023-04-25T13:37:12;7.40;1.00
4813;DHT22;2420;51.202;8.698;2023-04-25T13:39:38;7.40;1.00
4813;DHT22;2420;51.202;8.698;2023-04-25T13:42:03;7.70;1.00
4813;DHT22;2420;51.202;8.698;2023-04-25T13:44:29;8.10;1.00
4813;DHT22;2420;51.202;8.698;2023-04-25T13:46:55;8.40;1.00
4813;DHT22;2420;51.202;8.698;2023-04-25T13:49:21;8.80;1.00
4813;DHT22;2420;51.202;8.698;2023-04-25T13:51:48;9.00;1.00
4813;DHT22;2420;51.202;8.698;2023-04-25T13:54:13;8.80;1.00
4813;DHT22;2420;51.202;8.698;2023-04-25T13:56:39;8.90;1.00
4813;DHT22;2420;51.202;8.698;2023-04-25T13:59:07;9.10;1.00
4813;DHT22;2420;51.202;8.698;2023-04-25T14:01:32;9.10;1.00
4813;DHT22;2420;51.202;8.698;2023-04-25T14:04:01;9.10;1.00
4813;DHT22;2420;51.202;8.698;2023-04-25T14:06:27;8.80;1.00
4813;DHT22;2420;51.202;8.698;2023-04-25T14:08:53;8.60;1.00
4813;DHT22;2420;51.202;8.698;2023-04-25T14:11:19;8.50;1.00
4813;DHT22;2420;51.202;8.698;2023-04-25T14:13:46;8.60;1.00
4813;DHT22;2420;51.202;8.698;2023-04-25T14:16:11;8.50;1.00
4813;DHT22;2420;51.202;8.698;2023-04-25T14:18:37;8.50;1.00
4813;DHT22;2420;51.202;8.698;2023-04-25T14:21:02;8.60;1.00
4813;DHT22;2420;51.202;8.698;2023-04-25T14:23:28;8.50;1.00
4813;DHT22;2420;51.202;8.698;2023-04-25T14:25:54;8.50;1.00
4813;DHT22;2420;51.202;8.698;2023-04-25T14:28:19;8.40;1.00
4813;DHT22;2420;51.202;8.698;2023-04-25T14:30:45;8.30;1.00
4813;DHT22;2420;51.202;8.698;2023-04-25T14:33:11;8.20;1.00
4813;DHT22;2420;51.202;8.698;2023-04-25T14:35:36;8.30;1.00
4813;DHT22;2420;51.202;8.698;2023-04-25T14:38:02;8.20;1.00
4813;DHT22;2420;51.202;8.698;2023-04-25T14:40:28;8.20;1.00
4813;DHT22;2420;51.202;8.698;2023-04-25T14:42:53;8.30;1.00
4813;DHT22;2420;51.202;8.698;2023-04-25T14:45:19;8.30;1.00
4813;DHT22;2420;51.202;8.698;2023-04-25T14:47:45;8.40;1.00
4813;DHT22;2420;51.202;8.698;2023-04-25T14:50:11;8.30;1.00
4813;DHT22;2420;51.202;8.698;2023-04-25T14:52:36;8.50;1.00
4813;DHT22;2420;51.202;8.698;2023-04-25T14:55:02;8.30;1.00
4813;DHT22;2420;51.202;8.698;2023-04-25T14:57:32;8.20;1.00
4813;DHT22;2420;51.202;8.698;2023-04-25T14:59:58;8.10;1.00
4813;DHT22;2420;51.202;8.698;2023-04-25T15:02:24;8.10;1.00
4813;DHT22;2420;51.202;8.698;2023-04-25T15:04:51;8.00;1.00
4813;DHT22;2420;51.202;8.698;2023-04-25T15:07:16;7.70;1.00
4813;DHT22;2420;51.202;8.698;2023-04-25T15:09:42;7.50;1.00
4813;DHT22;2420;51.202;8.698;2023-04-25T15:12:07;7.60;1.00
4813;DHT22;2420;51.202;8.698;2023-04-25T15:14:33;7.70;1.00
4813;DHT22;2420;51.202;8.698;2023-04-25T15:16:59;7.70;1.00
4813;DHT22;2420;51.202;8.698;2023-04-25T15:19:25;7.90;1.00
4813;DHT22;2420;51.202;8.698;2023-04-25T15:21:51;8.30;1.00
4813;DHT22;2420;51.202;8.698;2023-04-25T15:24:18;8.50;1.00
4813;DHT22;2420;51.202;8.698;2023-04-25T15:26:43;8.60;1.00
4813;DHT22;2420;51.202;8.698;2023-04-25T15:29:10;8.70;1.00
4813;DHT22;2420;51.202;8.698;2023-04-25T15:31:37;8.90;1.00
4813;DHT22;2420;51.202;8.698;2023-04-25T15:34:02;9.00;1.00
4813;DHT22;2420;51.202;8.698;2023-04-25T15:36:28;9.20;1.00
4813;DHT22;2420;51.202;8.698;2023-04-25T15:38:53;9.00;1.00
4813;DHT22;2420;51.202;8.698;2023-04-25T15:41:19;9.10;1.00
4813;DHT22;2420;51.202;8.698;2023-04-25T15:43:47;8.90;1.00
4813;DHT22;2420;51.202;8.698;2023-04-25T15:46:13;8.50;1.00
4813;DHT22;2420;51.202;8.698;2023-04-25T15:48:38;8.30;1.00
4813;DHT22;2420;51.202;8.698;2023-04-25T15:51:05;8.30;1.00
4813;DHT22;2420;51.202;8.698;2023-04-25T15:53:31;8.50;1.00
4813;DHT22;2420;51.202;8.698;2023-04-25T15:55:57;8.20;1.00
4813;DHT22;2420;51.202;8.698;2023-04-25T15:58:22;8.00;1.00
4813;DHT22;2420;51.202;8.698;2023-04-25T16:00:48;7.70;1.00
4813;DHT22;2420;51.202;8.698;2023-04-25T16:03:15;7.70;1.00
4813;DHT22;2420;51.202;8.698;2023-04-25T16:05:40;7.70;1.00
4813;DHT22;2420;51.202;8.698;2023-04-25T16:08:06;7.60;1.00
4813;DHT22;2420;51.202;8.698;2023-04-25T16:10:32;7.60;1.00
4813;DHT22;2420;51.202;8.698;2023-04-25T16:12:58;7.50;1.00
4813;DHT22;2420;51.202;8.698;2023-04-25T16:15:24;7.50;1.00
4813;DHT22;2420;51.202;8.698;2023-04-25T16:17:49;7.40;1.00
4813;DHT22;2420;51.202;8.698;2023-04-25T16:20:16;7.10;1.00
4813;DHT22;2420;51.202;8.698;2023-04-25T16:22:42;7.10;1.00
4813;DHT22;2420;51.202;8.698;2023-04-25T16:25:09;7.30;1.00
4813;DHT22;2420;51.202;8.698;2023-04-25T16:27:35;7.70;1.00
4813;DHT22;2420;51.202;8.698;2023-04-25T16:30:03;7.90;1.00
4813;DHT22;2420;51.202;8.698;2023-04-25T16:32:29;7.90;1.00
4813;DHT22;2420;51.202;8.698;2023-04-25T16:34:55;8.00;1.00